sensor_id;sensor_type;location;lat;lon;timestamp;P1;durP1;ratioP1;P2;durP2;ratioP2
24585;SDS011;12743;52.262;6.172;2023-08-08T00:01:01;6.68;;;2.17;;
24585;SDS011;12743;52.262;6.172;2023-08-08T00:03:27;5.17;;;1.90;;
24585;SDS011;12743;52.262;6.172;2023-08-08T00:05:54;6.32;;;1.80;;
24585;SDS011;12743;52.262;6.172;2023-08-08T00:08:20;5.75;;;1.90;;
24585;SDS011;12743;52.262;6.172;2023-08-08T00:10:47;7.30;;;2.10;;
24585;SDS011;12743;52.262;6.172;2023-08-08T00:13:13;4.78;;;2.28;;
24585;SDS011;12743;52.262;6.172;2023-08-08T00:15:40;5.77;;;2.00;;
24585;SDS011;12743;52.262;6.172;2023-08-08T00:18:06;8.27;;;2.00;;
24585;SDS011;12743;52.262;6.172;2023-08-08T00:20:33;6.57;;;2.45;;
24585;SDS011;12743;52.262;6.172;2023-08-08T00:22:59;6.53;;;2.22;;
24585;SDS011;12743;52.262;6.172;2023-08-08T00:25:26;9.05;;;2.72;;
24585;SDS011;12743;52.262;6.172;2023-08-08T00:27:52;7.40;;;3.00;;
24585;SDS011;12743;52.262;6.172;2023-08-08T00:30:19;8.23;;;3.15;;
24585;SDS011;12743;52.262;6.172;2023-08-08T00:32:45;7.60;;;3.35;;
24585;SDS011;12743;52.262;6.172;2023-08-08T00:35:12;9.85;;;3.28;;
24585;SDS011;12743;52.262;6.172;2023-08-08T00:37:38;7.90;;;3.53;;
24585;SDS011;12743;52.262;6.172;2023-08-08T00:40:05;7.77;;;2.83;;
24585;SDS011;12743;52.262;6.172;2023-08-08T00:42:32;7.43;;;2.63;;
24585;SDS011;12743;52.262;6.172;2023-08-08T00:44:59;11.10;;;3.63;;
24585;SDS011;12743;52.262;6.172;2023-08-08T00:47:30;10.82;;;3.95;;
24585;SDS011;12743;52.262;6.172;2023-08-08T00:49:57;8.57;;;3.60;;
24585;SDS011;12743;52.262;6.172;2023-08-08T00:52:23;10.57;;;3.33;;
24585;SDS011;12743;52.262;6.172;2023-08-08T00:54:52;10.95;;;4.05;;
24585;SDS011;12743;52.262;6.172;2023-08-08T00:57:20;11.93;;;3.67;;
24585;SDS011;12743;52.262;6.172;2023-08-08T00:59:46;12.20;;;4.00;;
24585;SDS011;12743;52.262;6.172;2023-08-08T01:02:14;15.98;;;3.92;;
24585;SDS011;12743;52.262;6.172;2023-08-08T01:04:40;11.00;;;3.93;;
24585;SDS011;12743;52.262;6.172;2023-08-08T01:09:57;12.13;;;4.07;;
24585;SDS011;12743;52.262;6.172;2023-08-08T01:12:29;9.57;;;3.28;;
24585;SDS011;12743;52.262;6.172;2023-08-08T01:14:55;9.77;;;3.50;;
24585;SDS011;12743;52.262;6.172;2023-08-08T01:17:22;13.70;;;3.50;;
24585;SDS011;12743;52.262;6.172;2023-08-08T01:19:51;10.80;;;3.78;;
24585;SDS011;12743;52.262;6.172;2023-08-08T01:22:30;9.45;;;2.95;;
24585;SDS011;12743;52.262;6.172;2023-08-08T01:24:59;8.90;;;2.75;;
24585;SDS011;12743;52.262;6.172;2023-08-08T01:27:25;8.27;;;3.05;;
24585;SDS011;12743;52.262;6.172;2023-08-08T01:29:52;10.03;;;3.10;;
24585;SDS011;12743;52.262;6.172;2023-08-08T01:32:19;9.60;;;3.03;;
24585;SDS011;12743;52.262;6.172;2023-08-08T01:34:45;13.60;;;3.42;;
24585;SDS011;12743;52.262;6.172;2023-08-08T01:37:17;10.65;;;2.80;;
24585;SDS011;12743;52.262;6.172;2023-08-08T01:39:45;10.05;;;3.47;;
24585;SDS011;12743;52.262;6.172;2023-08-08T01:42:12;11.30;;;3.43;;
24585;SDS011;12743;52.262;6.172;2023-08-08T01:44:40;14.90;;;3.90;;
24585;SDS011;12743;52.262;6.172;2023-08-08T01:47:07;12.32;;;3.28;;
24585;SDS011;12743;52.262;6.172;2023-08-08T01:49:34;8.70;;;2.95;;
24585;SDS011;12743;52.262;6.172;2023-08-08T01:52:00;10.48;;;3.45;;
24585;SDS011;12743;52.262;6.172;2023-08-08T01:54:27;10.70;;;3.20;;
24585;SDS011;12743;52.262;6.172;2023-08-08T01:56:53;8.93;;;3.00;;
24585;SDS011;12743;52.262;6.172;2023-08-08T01:59:21;7.28;;;2.40;;
24585;SDS011;12743;52.262;6.172;2023-08-08T02:01:47;8.70;;;2.90;;
24585;SDS011;12743;52.262;6.172;2023-08-08T02:04:14;12.50;;;3.40;;
24585;SDS011;12743;52.262;6.172;2023-08-08T02:06:40;9.80;;;2.87;;
24585;SDS011;12743;52.262;6.172;2023-08-08T02:09:07;9.63;;;3.15;;
24585;SDS011;12743;52.262;6.172;2023-08-08T02:11:34;9.73;;;2.38;;
24585;SDS011;12743;52.262;6.172;2023-08-08T02:14:00;9.48;;;2.58;;
24585;SDS011;12743;52.262;6.172;2023-08-08T02:16:27;10.07;;;3.08;;
24585;SDS011;12743;52.262;6.172;2023-08-08T02:18:53;11.60;;;3.23;;
24585;SDS011;12743;52.262;6.172;2023-08-08T02:21:20;8.15;;;2.55;;
24585;SDS011;12743;52.262;6.172;2023-08-08T02:23:47;12.60;;;2.65;;
24585;SDS011;12743;52.262;6.172;2023-08-08T02:26:14;10.90;;;3.03;;
24585;SDS011;12743;52.262;6.172;2023-08-08T02:28:41;12.25;;;3.08;;
24585;SDS011;12743;52.262;6.172;2023-08-08T02:31:08;9.97;;;2.97;;
24585;SDS011;12743;52.262;6.172;2023-08-08T02:33:34;11.73;;;3.80;;
24585;SDS011;12743;52.262;6.172;2023-08-08T02:36:01;11.75;;;2.83;;
24585;SDS011;12743;52.262;6.172;2023-08-08T02:38:27;8.98;;;3.10;;
24585;SDS011;12743;52.262;6.172;2023-08-08T02:40:54;10.00;;;3.22;;
24585;SDS011;12743;52.262;6.172;2023-08-08T02:43:20;13.27;;;3.60;;
24585;SDS011;12743;52.262;6.172;2023-08-08T02:45:47;10.18;;;3.08;;
24585;SDS011;12743;52.262;6.172;2023-08-08T02:48:13;13.55;;;3.30;;
24585;SDS011;12743;52.262;6.172;2023-08-08T02:50:40;14.05;;;3.50;;
24585;SDS011;12743;52.262;6.172;2023-08-08T02:53:07;14.23;;;3.25;;
24585;SDS011;12743;52.262;6.172;2023-08-08T02:55:39;11.13;;;3.30;;
24585;SDS011;12743;52.262;6.172;2023-08-08T02:58:06;12.48;;;3.38;;
24585;SDS011;12743;52.262;6.172;2023-08-08T03:00:32;10.25;;;2.95;;
24585;SDS011;12743;52.262;6.172;2023-08-08T03:03:00;8.90;;;3.28;;
24585;SDS011;12743;52.262;6.172;2023-08-08T03:05:27;11.00;;;2.85;;
24585;SDS011;12743;52.262;6.172;2023-08-08T03:07:53;10.93;;;3.80;;
24585;SDS011;12743;52.262;6.172;2023-08-08T03:10:23;11.48;;;3.75;;
24585;SDS011;12743;52.262;6.172;2023-08-08T03:12:49;12.63;;;3.05;;
24585;SDS011;12743;52.262;6.172;2023-08-08T03:15:16;14.25;;;3.72;;
24585;SDS011;12743;52.262;6.172;2023-08-08T03:17:42;18.33;;;4.00;;
24585;SDS011;12743;52.262;6.172;2023-08-08T03:20:09;10.80;;;3.63;;
24585;SDS011;12743;52.262;6.172;2023-08-08T03:22:37;13.00;;;4.10;;
24585;SDS011;12743;52.262;6.172;2023-08-08T03:25:05;10.32;;;2.55;;
24585;SDS011;12743;52.262;6.172;2023-08-08T03:27:31;10.82;;;3.53;;
24585;SDS011;12743;52.262;6.172;2023-08-08T03:29:58;14.70;;;3.50;;
24585;SDS011;12743;52.262;6.172;2023-08-08T03:32:25;10.30;;;3.80;;
24585;SDS011;12743;52.262;6.172;2023-08-08T03:34:52;14.05;;;3.47;;
24585;SDS011;12743;52.262;6.172;2023-08-08T03:37:18;9.68;;;2.97;;
24585;SDS011;12743;52.262;6.172;2023-08-08T03:39:47;12.35;;;3.65;;
24585;SDS011;12743;52.262;6.172;2023-08-08T03:42:14;13.95;;;4.07;;
24585;SDS011;12743;52.262;6.172;2023-08-08T03:44:41;9.10;;;3.13;;
24585;SDS011;12743;52.262;6.172;2023-08-08T03:47:07;15.82;;;4.53;;
24585;SDS011;12743;52.262;6.172;2023-08-08T03:49:45;17.38;;;4.30;;
24585;SDS011;12743;52.262;6.172;2023-08-08T03:52:12;15.18;;;3.80;;
24585;SDS011;12743;52.262;6.172;2023-08-08T03:54:39;10.38;;;4.15;;
24585;SDS011;12743;52.262;6.172;2023-08-08T03:57:06;15.87;;;4.03;;
24585;SDS011;12743;52.262;6.172;2023-08-08T03:59:32;9.05;;;2.88;;
24585;SDS011;12743;52.262;6.172;2023-08-08T04:01:59;12.90;;;3.10;;
24585;SDS011;12743;52.262;6.172;2023-08-08T04:04:27;10.68;;;3.78;;
24585;SDS011;12743;52.262;6.172;2023-08-08T04:06:53;10.10;;;3.47;;
24585;SDS011;12743;52.262;6.172;2023-08-08T04:09:20;12.00;;;3.47;;
24585;SDS011;12743;52.262;6.172;2023-08-08T04:11:47;14.50;;;3.72;;
24585;SDS011;12743;52.262;6.172;2023-08-08T04:14:13;13.88;;;4.28;;
24585;SDS011;12743;52.262;6.172;2023-08-08T04:16:40;9.60;;;3.40;;
24585;SDS011;12743;52.262;6.172;2023-08-08T04:19:06;13.40;;;4.00;;
24585;SDS011;12743;52.262;6.172;2023-08-08T04:21:33;8.40;;;3.10;;
24585;SDS011;12743;52.262;6.172;2023-08-08T04:23:59;16.13;;;4.28;;
24585;SDS011;12743;52.262;6.172;2023-08-08T04:26:26;13.30;;;4.25;;
24585;SDS011;12743;52.262;6.172;2023-08-08T04:28:52;13.32;;;3.75;;
24585;SDS011;12743;52.262;6.172;2023-08-08T04:31:19;12.38;;;3.70;;
24585;SDS011;12743;52.262;6.172;2023-08-08T04:33:45;10.43;;;3.77;;
24585;SDS011;12743;52.262;6.172;2023-08-08T04:36:12;9.88;;;2.85;;
24585;SDS011;12743;52.262;6.172;2023-08-08T04:38:38;11.18;;;3.78;;
24585;SDS011;12743;52.262;6.172;2023-08-08T04:41:05;13.32;;;3.85;;
24585;SDS011;12743;52.262;6.172;2023-08-08T04:43:31;11.45;;;3.67;;
24585;SDS011;12743;52.262;6.172;2023-08-08T04:45:58;9.17;;;3.13;;
24585;SDS011;12743;52.262;6.172;2023-08-08T04:48:24;11.18;;;3.53;;
24585;SDS011;12743;52.262;6.172;2023-08-08T04:50:51;7.55;;;3.05;;
24585;SDS011;12743;52.262;6.172;2023-08-08T04:53:17;8.63;;;2.97;;
24585;SDS011;12743;52.262;6.172;2023-08-08T04:55:43;10.57;;;3.17;;
24585;SDS011;12743;52.262;6.172;2023-08-08T04:58:10;12.37;;;3.63;;
24585;SDS011;12743;52.262;6.172;2023-08-08T05:00:36;11.95;;;3.78;;
24585;SDS011;12743;52.262;6.172;2023-08-08T05:03:03;9.50;;;3.40;;
24585;SDS011;12743;52.262;6.172;2023-08-08T05:05:29;8.10;;;3.17;;
24585;SDS011;12743;52.262;6.172;2023-08-08T05:07:56;10.10;;;3.83;;
24585;SDS011;12743;52.262;6.172;2023-08-08T05:10:22;12.50;;;3.40;;
24585;SDS011;12743;52.262;6.172;2023-08-08T05:12:49;13.27;;;3.65;;
24585;SDS011;12743;52.262;6.172;2023-08-08T05:15:15;9.68;;;3.10;;
24585;SDS011;12743;52.262;6.172;2023-08-08T05:17:42;11.73;;;3.60;;
24585;SDS011;12743;52.262;6.172;2023-08-08T05:20:08;11.60;;;3.83;;
24585;SDS011;12743;52.262;6.172;2023-08-08T05:22:35;11.67;;;3.67;;
24585;SDS011;12743;52.262;6.172;2023-08-08T05:25:02;10.98;;;3.63;;
24585;SDS011;12743;52.262;6.172;2023-08-08T05:27:28;9.57;;;3.22;;
24585;SDS011;12743;52.262;6.172;2023-08-08T05:29:55;7.50;;;3.40;;
24585;SDS011;12743;52.262;6.172;2023-08-08T05:32:21;13.05;;;3.97;;
24585;SDS011;12743;52.262;6.172;2023-08-08T05:34:49;16.87;;;4.03;;
24585;SDS011;12743;52.262;6.172;2023-08-08T05:37:15;10.68;;;3.00;;
24585;SDS011;12743;52.262;6.172;2023-08-08T05:39:43;10.35;;;3.60;;
24585;SDS011;12743;52.262;6.172;2023-08-08T05:42:10;12.45;;;3.13;;
24585;SDS011;12743;52.262;6.172;2023-08-08T05:44:36;10.55;;;3.33;;
24585;SDS011;12743;52.262;6.172;2023-08-08T05:47:03;8.47;;;3.00;;
24585;SDS011;12743;52.262;6.172;2023-08-08T05:49:29;11.55;;;3.78;;
24585;SDS011;12743;52.262;6.172;2023-08-08T05:51:56;9.32;;;3.15;;
24585;SDS011;12743;52.262;6.172;2023-08-08T05:54:22;12.07;;;3.00;;
24585;SDS011;12743;52.262;6.172;2023-08-08T05:56:49;11.23;;;2.70;;
24585;SDS011;12743;52.262;6.172;2023-08-08T05:59:15;11.60;;;2.87;;
24585;SDS011;12743;52.262;6.172;2023-08-08T06:01:42;10.73;;;2.97;;
24585;SDS011;12743;52.262;6.172;2023-08-08T06:04:08;8.75;;;2.53;;
24585;SDS011;12743;52.262;6.172;2023-08-08T06:06:35;6.78;;;2.22;;
24585;SDS011;12743;52.262;6.172;2023-08-08T06:09:01;10.45;;;2.33;;
24585;SDS011;12743;52.262;6.172;2023-08-08T06:11:29;6.37;;;2.13;;
24585;SDS011;12743;52.262;6.172;2023-08-08T06:13:55;9.88;;;2.45;;
24585;SDS011;12743;52.262;6.172;2023-08-08T06:16:22;10.43;;;2.42;;
24585;SDS011;12743;52.262;6.172;2023-08-08T06:18:48;8.68;;;2.40;;
24585;SDS011;12743;52.262;6.172;2023-08-08T06:21:15;8.55;;;2.20;;
24585;SDS011;12743;52.262;6.172;2023-08-08T06:23:41;9.67;;;2.30;;
24585;SDS011;12743;52.262;6.172;2023-08-08T06:26:08;7.75;;;2.30;;
24585;SDS011;12743;52.262;6.172;2023-08-08T06:28:35;6.15;;;1.70;;
24585;SDS011;12743;52.262;6.172;2023-08-08T06:31:02;6.47;;;2.00;;
24585;SDS011;12743;52.262;6.172;2023-08-08T06:33:28;7.28;;;1.55;;
24585;SDS011;12743;52.262;6.172;2023-08-08T06:35:56;9.17;;;1.47;;
24585;SDS011;12743;52.262;6.172;2023-08-08T06:38:22;7.85;;;1.55;;
24585;SDS011;12743;52.262;6.172;2023-08-08T06:40:49;6.53;;;1.70;;
24585;SDS011;12743;52.262;6.172;2023-08-08T06:43:15;6.25;;;1.50;;
24585;SDS011;12743;52.262;6.172;2023-08-08T06:45:42;4.82;;;1.45;;
24585;SDS011;12743;52.262;6.172;2023-08-08T06:48:08;5.90;;;1.03;;
24585;SDS011;12743;52.262;6.172;2023-08-08T06:50:35;10.65;;;1.30;;
24585;SDS011;12743;52.262;6.172;2023-08-08T06:53:02;6.50;;;1.20;;
24585;SDS011;12743;52.262;6.172;2023-08-08T06:55:29;7.35;;;1.30;;
24585;SDS011;12743;52.262;6.172;2023-08-08T06:57:55;6.93;;;0.90;;
24585;SDS011;12743;52.262;6.172;2023-08-08T07:00:22;5.33;;;1.00;;
24585;SDS011;12743;52.262;6.172;2023-08-08T07:02:48;5.55;;;0.90;;
24585;SDS011;12743;52.262;6.172;2023-08-08T07:05:15;6.30;;;1.00;;
24585;SDS011;12743;52.262;6.172;2023-08-08T07:07:41;7.30;;;0.90;;
24585;SDS011;12743;52.262;6.172;2023-08-08T07:10:08;7.88;;;1.00;;
24585;SDS011;12743;52.262;6.172;2023-08-08T07:12:35;6.10;;;0.77;;
24585;SDS011;12743;52.262;6.172;2023-08-08T07:15:02;5.35;;;0.70;;
24585;SDS011;12743;52.262;6.172;2023-08-08T07:17:29;5.60;;;0.80;;
24585;SDS011;12743;52.262;6.172;2023-08-08T07:19:55;6.38;;;0.88;;
24585;SDS011;12743;52.262;6.172;2023-08-08T07:22:22;4.88;;;0.63;;
24585;SDS011;12743;52.262;6.172;2023-08-08T07:24:49;5.10;;;0.63;;
24585;SDS011;12743;52.262;6.172;2023-08-08T07:27:15;6.95;;;0.85;;
24585;SDS011;12743;52.262;6.172;2023-08-08T07:29:42;6.22;;;0.75;;
24585;SDS011;12743;52.262;6.172;2023-08-08T07:32:08;5.22;;;0.60;;
24585;SDS011;12743;52.262;6.172;2023-08-08T07:34:35;3.53;;;0.50;;
24585;SDS011;12743;52.262;6.172;2023-08-08T07:37:01;5.57;;;0.73;;
24585;SDS011;12743;52.262;6.172;2023-08-08T07:39:29;5.75;;;0.50;;
24585;SDS011;12743;52.262;6.172;2023-08-08T07:41:56;6.90;;;0.65;;
24585;SDS011;12743;52.262;6.172;2023-08-08T07:44:24;5.65;;;0.70;;
24585;SDS011;12743;52.262;6.172;2023-08-08T07:46:50;5.65;;;0.45;;
24585;SDS011;12743;52.262;6.172;2023-08-08T07:49:17;5.30;;;0.40;;
24585;SDS011;12743;52.262;6.172;2023-08-08T07:51:44;4.07;;;0.60;;
24585;SDS011;12743;52.262;6.172;2023-08-08T07:54:10;4.03;;;0.47;;
24585;SDS011;12743;52.262;6.172;2023-08-08T07:56:37;4.22;;;0.40;;
24585;SDS011;12743;52.262;6.172;2023-08-08T07:59:03;6.03;;;0.70;;
24585;SDS011;12743;52.262;6.172;2023-08-08T08:01:30;5.90;;;0.60;;
24585;SDS011;12743;52.262;6.172;2023-08-08T08:03:56;4.47;;;0.47;;
24585;SDS011;12743;52.262;6.172;2023-08-08T08:06:23;5.63;;;0.40;;
24585;SDS011;12743;52.262;6.172;2023-08-08T08:08:49;6.40;;;0.50;;
24585;SDS011;12743;52.262;6.172;2023-08-08T08:11:16;4.15;;;0.32;;
24585;SDS011;12743;52.262;6.172;2023-08-08T08:13:43;5.93;;;0.30;;
24585;SDS011;12743;52.262;6.172;2023-08-08T08:16:09;6.53;;;0.70;;
24585;SDS011;12743;52.262;6.172;2023-08-08T08:18:36;2.85;;;0.30;;
24585;SDS011;12743;52.262;6.172;2023-08-08T08:21:02;2.45;;;0.30;;
24585;SDS011;12743;52.262;6.172;2023-08-08T08:23:29;2.38;;;0.30;;
24585;SDS011;12743;52.262;6.172;2023-08-08T08:25:58;4.00;;;0.37;;
24585;SDS011;12743;52.262;6.172;2023-08-08T08:28:25;3.00;;;0.20;;
24585;SDS011;12743;52.262;6.172;2023-08-08T08:30:52;2.83;;;0.65;;
24585;SDS011;12743;52.262;6.172;2023-08-08T08:33:19;2.88;;;0.30;;
24585;SDS011;12743;52.262;6.172;2023-08-08T08:35:46;2.78;;;0.32;;
24585;SDS011;12743;52.262;6.172;2023-08-08T08:38:12;4.27;;;0.40;;
24585;SDS011;12743;52.262;6.172;2023-08-08T08:40:41;2.97;;;0.30;;
24585;SDS011;12743;52.262;6.172;2023-08-08T08:43:07;3.10;;;0.30;;
24585;SDS011;12743;52.262;6.172;2023-08-08T08:45:36;4.72;;;0.50;;
24585;SDS011;12743;52.262;6.172;2023-08-08T08:48:04;6.50;;;0.30;;
24585;SDS011;12743;52.262;6.172;2023-08-08T08:50:34;2.17;;;0.30;;
24585;SDS011;12743;52.262;6.172;2023-08-08T08:53:01;1.50;;;0.20;;
24585;SDS011;12743;52.262;6.172;2023-08-08T08:55:28;2.78;;;0.40;;
24585;SDS011;12743;52.262;6.172;2023-08-08T08:57:54;3.13;;;0.20;;
24585;SDS011;12743;52.262;6.172;2023-08-08T09:00:21;4.65;;;0.35;;
24585;SDS011;12743;52.262;6.172;2023-08-08T09:02:48;3.60;;;0.43;;
24585;SDS011;12743;52.262;6.172;2023-08-08T09:05:15;2.97;;;0.30;;
24585;SDS011;12743;52.262;6.172;2023-08-08T09:07:44;5.00;;;0.50;;
24585;SDS011;12743;52.262;6.172;2023-08-08T09:10:11;3.83;;;0.40;;
24585;SDS011;12743;52.262;6.172;2023-08-08T09:12:37;4.30;;;0.60;;
24585;SDS011;12743;52.262;6.172;2023-08-08T09:15:04;3.57;;;0.30;;
24585;SDS011;12743;52.262;6.172;2023-08-08T09:17:31;4.85;;;0.38;;
24585;SDS011;12743;52.262;6.172;2023-08-08T09:20:01;2.50;;;0.28;;
24585;SDS011;12743;52.262;6.172;2023-08-08T09:22:27;4.47;;;0.30;;
24585;SDS011;12743;52.262;6.172;2023-08-08T09:24:55;2.85;;;0.30;;
24585;SDS011;12743;52.262;6.172;2023-08-08T09:27:21;2.53;;;0.50;;
24585;SDS011;12743;52.262;6.172;2023-08-08T09:29:48;3.30;;;0.30;;
24585;SDS011;12743;52.262;6.172;2023-08-08T09:32:15;3.67;;;0.20;;
24585;SDS011;12743;52.262;6.172;2023-08-08T09:34:44;2.45;;;0.40;;
24585;SDS011;12743;52.262;6.172;2023-08-08T09:37:10;3.20;;;0.30;;
24585;SDS011;12743;52.262;6.172;2023-08-08T09:39:37;3.13;;;0.20;;
24585;SDS011;12743;52.262;6.172;2023-08-08T09:42:03;2.90;;;0.20;;
24585;SDS011;12743;52.262;6.172;2023-08-08T09:44:35;3.88;;;0.30;;
24585;SDS011;12743;52.262;6.172;2023-08-08T09:47:02;4.03;;;0.60;;
24585;SDS011;12743;52.262;6.172;2023-08-08T09:49:29;3.15;;;0.30;;
24585;SDS011;12743;52.262;6.172;2023-08-08T09:51:58;4.40;;;0.37;;
24585;SDS011;12743;52.262;6.172;2023-08-08T09:54:25;4.25;;;0.90;;
24585;SDS011;12743;52.262;6.172;2023-08-08T09:56:51;2.55;;;0.20;;
24585;SDS011;12743;52.262;6.172;2023-08-08T09:59:18;3.50;;;0.32;;
24585;SDS011;12743;52.262;6.172;2023-08-08T10:01:45;3.92;;;0.40;;
24585;SDS011;12743;52.262;6.172;2023-08-08T10:04:12;1.77;;;0.20;;
24585;SDS011;12743;52.262;6.172;2023-08-08T10:06:39;2.22;;;0.20;;
24585;SDS011;12743;52.262;6.172;2023-08-08T10:09:06;3.13;;;0.30;;
24585;SDS011;12743;52.262;6.172;2023-08-08T10:11:33;2.17;;;0.20;;
24585;SDS011;12743;52.262;6.172;2023-08-08T10:14:03;4.03;;;0.22;;
24585;SDS011;12743;52.262;6.172;2023-08-08T10:16:33;2.63;;;0.27;;
24585;SDS011;12743;52.262;6.172;2023-08-08T10:19:01;0.93;;;0.20;;
24585;SDS011;12743;52.262;6.172;2023-08-08T10:21:32;2.88;;;0.22;;
24585;SDS011;12743;52.262;6.172;2023-08-08T10:26:28;2.75;;;0.30;;
24585;SDS011;12743;52.262;6.172;2023-08-08T10:28:55;2.50;;;0.23;;
24585;SDS011;12743;52.262;6.172;2023-08-08T10:31:25;4.40;;;0.30;;
24585;SDS011;12743;52.262;6.172;2023-08-08T10:34:02;2.72;;;0.45;;
24585;SDS011;12743;52.262;6.172;2023-08-08T10:36:48;3.20;;;0.30;;
24585;SDS011;12743;52.262;6.172;2023-08-08T10:39:15;2.17;;;0.20;;
24585;SDS011;12743;52.262;6.172;2023-08-08T10:41:44;3.47;;;0.43;;
24585;SDS011;12743;52.262;6.172;2023-08-08T10:44:11;3.75;;;0.30;;
24585;SDS011;12743;52.262;6.172;2023-08-08T10:46:39;1.02;;;0.20;;
24585;SDS011;12743;52.262;6.172;2023-08-08T10:49:06;2.22;;;0.20;;
24585;SDS011;12743;52.262;6.172;2023-08-08T10:51:39;1.75;;;0.20;;
24585;SDS011;12743;52.262;6.172;2023-08-08T10:54:13;1.90;;;0.20;;
24585;SDS011;12743;52.262;6.172;2023-08-08T10:56:40;1.70;;;0.20;;
24585;SDS011;12743;52.262;6.172;2023-08-08T10:59:20;4.82;;;0.30;;
24585;SDS011;12743;52.262;6.172;2023-08-08T11:01:50;2.88;;;0.20;;
24585;SDS011;12743;52.262;6.172;2023-08-08T11:04:18;3.58;;;0.30;;
24585;SDS011;12743;52.262;6.172;2023-08-08T11:06:45;3.20;;;0.27;;
24585;SDS011;12743;52.262;6.172;2023-08-08T11:09:13;4.53;;;0.30;;
24585;SDS011;12743;52.262;6.172;2023-08-08T11:11:41;2.42;;;0.20;;
24585;SDS011;12743;52.262;6.172;2023-08-08T11:14:17;1.83;;;0.30;;
24585;SDS011;12743;52.262;6.172;2023-08-08T11:16:44;1.50;;;0.20;;
24585;SDS011;12743;52.262;6.172;2023-08-08T11:19:11;2.77;;;0.13;;
24585;SDS011;12743;52.262;6.172;2023-08-08T11:21:42;2.47;;;0.20;;
24585;SDS011;12743;52.262;6.172;2023-08-08T11:24:09;3.53;;;0.20;;
24585;SDS011;12743;52.262;6.172;2023-08-08T11:26:36;2.22;;;0.20;;
24585;SDS011;12743;52.262;6.172;2023-08-08T11:29:03;0.88;;;0.20;;
24585;SDS011;12743;52.262;6.172;2023-08-08T11:31:30;3.33;;;0.30;;
24585;SDS011;12743;52.262;6.172;2023-08-08T11:33:58;2.03;;;0.28;;
24585;SDS011;12743;52.262;6.172;2023-08-08T11:36:26;2.35;;;0.22;;
24585;SDS011;12743;52.262;6.172;2023-08-08T11:38:54;2.40;;;0.20;;
24585;SDS011;12743;52.262;6.172;2023-08-08T11:41:22;1.83;;;0.30;;
24585;SDS011;12743;52.262;6.172;2023-08-08T11:43:50;2.20;;;0.40;;
24585;SDS011;12743;52.262;6.172;2023-08-08T11:46:17;2.42;;;0.20;;
24585;SDS011;12743;52.262;6.172;2023-08-08T11:48:46;2.75;;;0.30;;
24585;SDS011;12743;52.262;6.172;2023-08-08T11:51:13;1.30;;;0.40;;
24585;SDS011;12743;52.262;6.172;2023-08-08T11:53:50;2.75;;;0.30;;
24585;SDS011;12743;52.262;6.172;2023-08-08T11:56:18;3.13;;;0.30;;
24585;SDS011;12743;52.262;6.172;2023-08-08T11:58:45;2.15;;;0.20;;
24585;SDS011;12743;52.262;6.172;2023-08-08T12:01:11;1.48;;;0.30;;
24585;SDS011;12743;52.262;6.172;2023-08-08T12:03:40;3.22;;;0.30;;
24585;SDS011;12743;52.262;6.172;2023-08-08T12:06:14;2.65;;;0.30;;
24585;SDS011;12743;52.262;6.172;2023-08-08T12:08:41;2.60;;;0.37;;
24585;SDS011;12743;52.262;6.172;2023-08-08T12:11:11;1.30;;;0.20;;
24585;SDS011;12743;52.262;6.172;2023-08-08T12:13:38;2.53;;;0.30;;
24585;SDS011;12743;52.262;6.172;2023-08-08T12:16:06;1.40;;;0.30;;
24585;SDS011;12743;52.262;6.172;2023-08-08T12:18:43;1.98;;;0.25;;
24585;SDS011;12743;52.262;6.172;2023-08-08T12:21:10;1.50;;;0.20;;
24585;SDS011;12743;52.262;6.172;2023-08-08T12:23:36;1.88;;;0.40;;
24585;SDS011;12743;52.262;6.172;2023-08-08T12:26:03;2.22;;;0.30;;
24585;SDS011;12743;52.262;6.172;2023-08-08T12:28:31;1.98;;;0.40;;
24585;SDS011;12743;52.262;6.172;2023-08-08T12:30:58;0.98;;;0.20;;
24585;SDS011;12743;52.262;6.172;2023-08-08T12:33:25;2.07;;;0.57;;
24585;SDS011;12743;52.262;6.172;2023-08-08T12:35:51;2.63;;;0.30;;
24585;SDS011;12743;52.262;6.172;2023-08-08T12:38:18;1.77;;;0.20;;
24585;SDS011;12743;52.262;6.172;2023-08-08T12:40:45;1.40;;;0.28;;
24585;SDS011;12743;52.262;6.172;2023-08-08T12:43:11;2.30;;;0.30;;
24585;SDS011;12743;52.262;6.172;2023-08-08T12:45:40;3.90;;;0.20;;
24585;SDS011;12743;52.262;6.172;2023-08-08T12:48:06;2.53;;;0.40;;
24585;SDS011;12743;52.262;6.172;2023-08-08T12:50:33;2.92;;;0.30;;
24585;SDS011;12743;52.262;6.172;2023-08-08T12:52:59;4.50;;;0.50;;
24585;SDS011;12743;52.262;6.172;2023-08-08T12:55:26;2.95;;;0.30;;
24585;SDS011;12743;52.262;6.172;2023-08-08T12:57:52;2.63;;;0.30;;
24585;SDS011;12743;52.262;6.172;2023-08-08T13:00:19;1.08;;;0.30;;
24585;SDS011;12743;52.262;6.172;2023-08-08T13:02:45;1.90;;;0.25;;
24585;SDS011;12743;52.262;6.172;2023-08-08T13:05:12;4.35;;;0.40;;
24585;SDS011;12743;52.262;6.172;2023-08-08T13:07:38;3.97;;;1.17;;
24585;SDS011;12743;52.262;6.172;2023-08-08T13:10:05;2.50;;;0.37;;
24585;SDS011;12743;52.262;6.172;2023-08-08T13:12:31;4.07;;;0.47;;
24585;SDS011;12743;52.262;6.172;2023-08-08T13:14:58;4.53;;;0.68;;
24585;SDS011;12743;52.262;6.172;2023-08-08T13:17:25;4.00;;;0.45;;
24585;SDS011;12743;52.262;6.172;2023-08-08T13:19:51;2.60;;;0.30;;
24585;SDS011;12743;52.262;6.172;2023-08-08T13:22:17;2.10;;;0.30;;
24585;SDS011;12743;52.262;6.172;2023-08-08T13:24:44;3.45;;;0.50;;
24585;SDS011;12743;52.262;6.172;2023-08-08T13:27:10;2.28;;;0.40;;
24585;SDS011;12743;52.262;6.172;2023-08-08T13:29:37;3.65;;;0.35;;
24585;SDS011;12743;52.262;6.172;2023-08-08T13:32:04;5.57;;;0.63;;
24585;SDS011;12743;52.262;6.172;2023-08-08T13:34:30;3.83;;;0.33;;
24585;SDS011;12743;52.262;6.172;2023-08-08T13:36:56;1.60;;;0.30;;
24585;SDS011;12743;52.262;6.172;2023-08-08T13:39:23;1.73;;;0.30;;
24585;SDS011;12743;52.262;6.172;2023-08-08T13:41:49;1.70;;;0.30;;
24585;SDS011;12743;52.262;6.172;2023-08-08T13:44:16;2.40;;;0.35;;
24585;SDS011;12743;52.262;6.172;2023-08-08T13:46:42;3.70;;;0.40;;
24585;SDS011;12743;52.262;6.172;2023-08-08T13:49:09;4.22;;;0.47;;
24585;SDS011;12743;52.262;6.172;2023-08-08T13:51:35;2.53;;;0.40;;
24585;SDS011;12743;52.262;6.172;2023-08-08T13:54:02;2.85;;;0.22;;
24585;SDS011;12743;52.262;6.172;2023-08-08T13:56:28;2.22;;;0.30;;
24585;SDS011;12743;52.262;6.172;2023-08-08T13:58:55;5.10;;;0.33;;
24585;SDS011;12743;52.262;6.172;2023-08-08T14:01:21;2.22;;;0.40;;
24585;SDS011;12743;52.262;6.172;2023-08-08T14:03:48;2.85;;;0.30;;
24585;SDS011;12743;52.262;6.172;2023-08-08T14:06:15;1.70;;;0.30;;
24585;SDS011;12743;52.262;6.172;2023-08-08T14:08:41;2.42;;;0.20;;
24585;SDS011;12743;52.262;6.172;2023-08-08T14:11:08;3.47;;;0.50;;
24585;SDS011;12743;52.262;6.172;2023-08-08T14:13:34;4.10;;;0.30;;
24585;SDS011;12743;52.262;6.172;2023-08-08T14:16:01;2.95;;;0.30;;
24585;SDS011;12743;52.262;6.172;2023-08-08T14:18:28;6.30;;;0.30;;
24585;SDS011;12743;52.262;6.172;2023-08-08T14:20:54;2.33;;;0.20;;
24585;SDS011;12743;52.262;6.172;2023-08-08T14:23:20;5.63;;;0.40;;
24585;SDS011;12743;52.262;6.172;2023-08-08T14:25:48;3.42;;;0.47;;
24585;SDS011;12743;52.262;6.172;2023-08-08T14:28:14;2.15;;;0.30;;
24585;SDS011;12743;52.262;6.172;2023-08-08T14:30:40;1.65;;;0.32;;
24585;SDS011;12743;52.262;6.172;2023-08-08T14:33:07;2.25;;;0.30;;
24585;SDS011;12743;52.262;6.172;2023-08-08T14:35:34;3.40;;;0.33;;
24585;SDS011;12743;52.262;6.172;2023-08-08T14:38:00;4.00;;;0.52;;
24585;SDS011;12743;52.262;6.172;2023-08-08T14:40:27;2.97;;;0.40;;
24585;SDS011;12743;52.262;6.172;2023-08-08T14:42:54;1.90;;;0.20;;
24585;SDS011;12743;52.262;6.172;2023-08-08T14:45:22;2.67;;;0.20;;
24585;SDS011;12743;52.262;6.172;2023-08-08T14:47:48;1.63;;;0.20;;